sensor_id;sensor_type;location;lat;lon;timestamp;pressure;altitude;pressure_sealevel;temperature;humidity
48622;BME280;34421;48.944;9.460;2023-02-04T00:00:06;99690.84;;;8.71;82.38
48622;BME280;34421;48.944;9.460;2023-02-04T00:02:32;99690.34;;;8.67;82.90
48622;BME280;34421;48.944;9.460;2023-02-04T00:04:57;99694.84;;;8.66;82.16
48622;BME280;34421;48.944;9.460;2023-02-04T00:07:23;99684.38;;;8.65;83.02
48622;BME280;34421;48.944;9.460;2023-02-04T00:09:48;99687.69;;;8.67;83.41
48622;BME280;34421;48.944;9.460;2023-02-04T00:12:14;99689.34;;;8.68;82.63
48622;BME280;34421;48.944;9.460;2023-02-04T00:14:39;99692.31;;;8.73;82.95
48622;BME280;34421;48.944;9.460;2023-02-04T00:17:04;99698.13;;;8.77;82.38
48622;BME280;34421;48.944;9.460;2023-02-04T00:19:32;99695.13;;;8.80;83.38
48622;BME280;34421;48.944;9.460;2023-02-04T00:21:57;99692.13;;;8.83;83.27
48622;BME280;34421;48.944;9.460;2023-02-04T00:24:22;99696.63;;;8.82;83.34
48622;BME280;34421;48.944;9.460;2023-02-04T00:26:47;99706.28;;;8.83;82.50
48622;BME280;34421;48.944;9.460;2023-02-04T00:29:12;99704.09;;;8.79;82.70
48622;BME280;34421;48.944;9.460;2023-02-04T00:31:38;99701.78;;;8.76;83.68
48622;BME280;34421;48.944;9.460;2023-02-04T00:34:03;99691.50;;;8.73;83.34
48622;BME280;34421;48.944;9.460;2023-02-04T00:36:28;99690.50;;;8.65;84.36
48622;BME280;34421;48.944;9.460;2023-02-04T00:38:53;99698.66;;;8.64;84.90
48622;BME280;34421;48.944;9.460;2023-02-04T00:41:18;99699.81;;;8.61;84.34
48622;BME280;34421;48.944;9.460;2023-02-04T00:43:44;99697.63;;;8.65;85.75
48622;BME280;34421;48.944;9.460;2023-02-04T00:46:09;99700.63;;;8.70;85.45
48622;BME280;34421;48.944;9.460;2023-02-04T00:48:34;99704.44;;;8.67;85.29
48622;BME280;34421;48.944;9.460;2023-02-04T00:51:00;99700.97;;;8.67;84.81
48622;BME280;34421;48.944;9.460;2023-02-04T00:53:25;99705.44;;;8.66;84.67
48622;BME280;34421;48.944;9.460;2023-02-04T00:55:50;99709.09;;;8.65;84.83
48622;BME280;34421;48.944;9.460;2023-02-04T00:58:15;99708.59;;;8.70;84.32
48622;BME280;34421;48.944;9.460;2023-02-04T01:00:41;99714.38;;;8.74;83.88
48622;BME280;34421;48.944;9.460;2023-02-04T01:03:06;99720.88;;;8.71;83.76
48622;BME280;34421;48.944;9.460;2023-02-04T01:05:31;99722.88;;;8.69;84.09
48622;BME280;34421;48.944;9.460;2023-02-04T01:07:56;99738.47;;;8.72;83.73
48622;BME280;34421;48.944;9.460;2023-02-04T01:10:22;99728.53;;;8.66;84.00
48622;BME280;34421;48.944;9.460;2023-02-04T01:12:47;99728.00;;;8.62;83.58
48622;BME280;34421;48.944;9.460;2023-02-04T01:15:12;99743.09;;;8.62;83.01
48622;BME280;34421;48.944;9.460;2023-02-04T01:17:37;99746.78;;;8.61;83.32
48622;BME280;34421;48.944;9.460;2023-02-04T01:20:03;99745.13;;;8.60;83.80
48622;BME280;34421;48.944;9.460;2023-02-04T01:22:28;99748.75;;;8.59;83.86
48622;BME280;34421;48.944;9.460;2023-02-04T01:24:53;99758.88;;;8.55;83.67
48622;BME280;34421;48.944;9.460;2023-02-04T01:27:19;99759.69;;;8.56;84.03
48622;BME280;34421;48.944;9.460;2023-02-04T01:29:44;99769.00;;;8.52;83.99
48622;BME280;34421;48.944;9.460;2023-02-04T01:32:09;99768.19;;;8.51;83.80
48622;BME280;34421;48.944;9.460;2023-02-04T01:34:34;99775.97;;;8.53;83.85
48622;BME280;34421;48.944;9.460;2023-02-04T01:36:59;99761.38;;;8.49;83.53
48622;BME280;34421;48.944;9.460;2023-02-04T01:39:25;99765.69;;;8.50;83.70
48622;BME280;34421;48.944;9.460;2023-02-04T01:41:50;99759.38;;;8.42;83.17
48622;BME280;34421;48.944;9.460;2023-02-04T01:44:15;99771.81;;;8.42;83.89
48622;BME280;34421;48.944;9.460;2023-02-04T01:46:40;99766.66;;;8.40;83.65
48622;BME280;34421;48.944;9.460;2023-02-04T01:49:05;99769.63;;;8.37;83.03
48622;BME280;34421;48.944;9.460;2023-02-04T01:51:31;99768.13;;;8.35;83.27
48622;BME280;34421;48.944;9.460;2023-02-04T01:53:57;99774.81;;;8.39;84.07
48622;BME280;34421;48.944;9.460;2023-02-04T01:56:23;99765.03;;;8.39;83.96
48622;BME280;34421;48.944;9.460;2023-02-04T01:58:50;99778.94;;;8.41;83.76
48622;BME280;34421;48.944;9.460;2023-02-04T02:01:33;99779.28;;;8.47;83.78
48622;BME280;34421;48.944;9.460;2023-02-04T02:03:59;99785.75;;;8.52;83.92
48622;BME280;34421;48.944;9.460;2023-02-04T02:06:24;99793.88;;;8.59;84.00
48622;BME280;34421;48.944;9.460;2023-02-04T02:08:50;99794.56;;;8.61;83.01
48622;BME280;34421;48.944;9.460;2023-02-04T02:11:15;99790.91;;;8.62;83.35
48622;BME280;34421;48.944;9.460;2023-02-04T02:13:41;99778.28;;;8.64;83.16
48622;BME280;34421;48.944;9.460;2023-02-04T02:16:06;99798.53;;;8.65;82.57
48622;BME280;34421;48.944;9.460;2023-02-04T02:18:31;99788.59;;;8.67;82.95
48622;BME280;34421;48.944;9.460;2023-02-04T02:20:56;99797.56;;;8.66;82.35
48622;BME280;34421;48.944;9.460;2023-02-04T02:26:08;99791.91;;;8.69;82.09
48622;BME280;34421;48.944;9.460;2023-02-04T02:28:33;99784.94;;;8.68;82.89
48622;BME280;34421;48.944;9.460;2023-02-04T02:30:59;99788.09;;;8.72;82.96
48622;BME280;34421;48.944;9.460;2023-02-04T02:33:24;99784.25;;;8.74;82.80
48622;BME280;34421;48.944;9.460;2023-02-04T02:35:50;99797.38;;;8.76;82.61
48622;BME280;34421;48.944;9.460;2023-02-04T02:38:16;99789.75;;;8.73;82.66
48622;BME280;34421;48.944;9.460;2023-02-04T02:40:42;99799.69;;;8.71;81.61
48622;BME280;34421;48.944;9.460;2023-02-04T02:43:08;99796.56;;;8.67;82.03
48622;BME280;34421;48.944;9.460;2023-02-04T02:45:37;99806.50;;;8.65;80.95
48622;BME280;34421;48.944;9.460;2023-02-04T02:48:03;99809.97;;;8.65;81.40
48622;BME280;34421;48.944;9.460;2023-02-04T02:50:28;99812.63;;;8.65;81.19
48622;BME280;34421;48.944;9.460;2023-02-04T02:52:54;99810.63;;;8.59;81.26
48622;BME280;34421;48.944;9.460;2023-02-04T02:55:21;99807.16;;;8.59;80.89
48622;BME280;34421;48.944;9.460;2023-02-04T02:57:47;99817.44;;;8.62;80.59
48622;BME280;34421;48.944;9.460;2023-02-04T03:00:23;99821.59;;;8.64;81.22
48622;BME280;34421;48.944;9.460;2023-02-04T03:05:17;99832.41;;;8.63;80.03
48622;BME280;34421;48.944;9.460;2023-02-04T03:07:42;99835.69;;;8.65;80.21
48622;BME280;34421;48.944;9.460;2023-02-04T03:10:07;99839.38;;;8.64;80.30
48622;BME280;34421;48.944;9.460;2023-02-04T03:12:33;99837.88;;;8.61;80.42
48622;BME280;34421;48.944;9.460;2023-02-04T03:14:58;99847.16;;;8.57;79.83
48622;BME280;34421;48.944;9.460;2023-02-04T03:17:23;99851.66;;;8.57;80.34
48622;BME280;34421;48.944;9.460;2023-02-04T03:19:48;99860.91;;;8.53;80.72
48622;BME280;34421;48.944;9.460;2023-02-04T03:22:14;99865.88;;;8.56;79.63
48622;BME280;34421;48.944;9.460;2023-02-04T03:24:39;99866.22;;;8.53;80.28
48622;BME280;34421;48.944;9.460;2023-02-04T03:27:05;99872.53;;;8.52;79.32
48622;BME280;34421;48.944;9.460;2023-02-04T03:29:31;99888.28;;;8.53;80.14
48622;BME280;34421;48.944;9.460;2023-02-04T03:31:56;99878.53;;;8.54;79.57
48622;BME280;34421;48.944;9.460;2023-02-04T03:34:23;99886.47;;;8.54;80.03
48622;BME280;34421;48.944;9.460;2023-02-04T03:36:49;99879.50;;;8.53;79.33
48622;BME280;34421;48.944;9.460;2023-02-04T03:39:14;99880.63;;;8.50;80.01
48622;BME280;34421;48.944;9.460;2023-02-04T03:41:39;99881.31;;;8.52;79.26
48622;BME280;34421;48.944;9.460;2023-02-04T03:44:05;99882.97;;;8.53;79.49
48622;BME280;34421;48.944;9.460;2023-02-04T03:46:30;99882.78;;;8.47;79.79
48622;BME280;34421;48.944;9.460;2023-02-04T03:48:55;99891.09;;;8.43;79.65
48622;BME280;34421;48.944;9.460;2023-02-04T03:51:20;99887.94;;;8.40;79.46
48622;BME280;34421;48.944;9.460;2023-02-04T03:53:46;99892.69;;;8.36;79.74
48622;BME280;34421;48.944;9.460;2023-02-04T03:56:11;99896.31;;;8.35;79.62
48622;BME280;34421;48.944;9.460;2023-02-04T03:58:36;99892.16;;;8.33;79.37
48622;BME280;34421;48.944;9.460;2023-02-04T04:01:01;99904.78;;;8.31;80.15
48622;BME280;34421;48.944;9.460;2023-02-04T04:03:27;99912.25;;;8.27;80.06
48622;BME280;34421;48.944;9.460;2023-02-04T04:05:52;99903.75;;;8.23;79.66
48622;BME280;34421;48.944;9.460;2023-02-04T04:08:17;99893.47;;;8.20;79.76
48622;BME280;34421;48.944;9.460;2023-02-04T04:10:42;99897.63;;;8.23;79.71
48622;BME280;34421;48.944;9.460;2023-02-04T04:13:08;99915.03;;;8.26;80.16
48622;BME280;34421;48.944;9.460;2023-02-04T04:15:33;99907.91;;;8.26;79.57
48622;BME280;34421;48.944;9.460;2023-02-04T04:17:58;99914.22;;;8.25;79.65
48622;BME280;34421;48.944;9.460;2023-02-04T04:20:23;99912.72;;;8.22;79.88
48622;BME280;34421;48.944;9.460;2023-02-04T04:22:50;99917.50;;;8.19;80.35
48622;BME280;34421;48.944;9.460;2023-02-04T04:25:15;99920.47;;;8.16;80.34
48622;BME280;34421;48.944;9.460;2023-02-04T04:27:40;99922.78;;;8.11;80.29
48622;BME280;34421;48.944;9.460;2023-02-04T04:30:05;99934.38;;;8.10;80.15
48622;BME280;34421;48.944;9.460;2023-02-04T04:32:31;99932.50;;;8.02;80.43
48622;BME280;34421;48.944;9.460;2023-02-04T04:34:56;99930.19;;;7.99;80.26
48622;BME280;34421;48.944;9.460;2023-02-04T04:37:21;99944.25;;;7.99;80.40
48622;BME280;34421;48.944;9.460;2023-02-04T04:39:46;99939.13;;;7.98;80.70
48622;BME280;34421;48.944;9.460;2023-02-04T04:42:11;99947.41;;;7.95;80.64
48622;BME280;34421;48.944;9.460;2023-02-04T04:44:37;99949.53;;;7.91;80.27
48622;BME280;34421;48.944;9.460;2023-02-04T04:47:02;99954.31;;;7.88;80.57
48622;BME280;34421;48.944;9.460;2023-02-04T04:49:27;99953.47;;;7.87;80.42
48622;BME280;34421;48.944;9.460;2023-02-04T04:51:52;99951.00;;;7.86;80.49
48622;BME280;34421;48.944;9.460;2023-02-04T04:54:18;99961.22;;;7.81;80.66
48622;BME280;34421;48.944;9.460;2023-02-04T04:56:43;99953.72;;;7.76;80.10
48622;BME280;34421;48.944;9.460;2023-02-04T04:59:08;99946.25;;;7.71;80.67
48622;BME280;34421;48.944;9.460;2023-02-04T05:01:34;99951.72;;;7.70;80.80
48622;BME280;34421;48.944;9.460;2023-02-04T05:03:59;99951.38;;;7.65;80.77
48622;BME280;34421;48.944;9.460;2023-02-04T05:06:24;99961.59;;;7.60;80.94
48622;BME280;34421;48.944;9.460;2023-02-04T05:08:50;99953.94;;;7.57;80.90
48622;BME280;34421;48.944;9.460;2023-02-04T05:11:15;99956.28;;;7.60;81.13
48622;BME280;34421;48.944;9.460;2023-02-04T05:13:41;99953.84;;;7.66;81.30
48622;BME280;34421;48.944;9.460;2023-02-04T05:16:06;99962.28;;;7.62;80.80
48622;BME280;34421;48.944;9.460;2023-02-04T05:18:31;99952.28;;;7.56;81.11
48622;BME280;34421;48.944;9.460;2023-02-04T05:20:56;99950.41;;;7.48;81.25
48622;BME280;34421;48.944;9.460;2023-02-04T05:23:22;99952.97;;;7.40;81.28
48622;BME280;34421;48.944;9.460;2023-02-04T05:25:47;99954.91;;;7.29;80.86
48622;BME280;34421;48.944;9.460;2023-02-04T05:28:12;99962.94;;;7.20;81.11
48622;BME280;34421;48.944;9.460;2023-02-04T05:30:37;99971.16;;;7.17;80.97
48622;BME280;34421;48.944;9.460;2023-02-04T05:33:02;99976.47;;;7.17;80.68
48622;BME280;34421;48.944;9.460;2023-02-04T05:35:28;99970.50;;;7.15;81.02
48622;BME280;34421;48.944;9.460;2023-02-04T05:37:53;99977.44;;;7.16;80.46
48622;BME280;34421;48.944;9.460;2023-02-04T05:40:18;99974.50;;;7.19;79.35
48622;BME280;34421;48.944;9.460;2023-02-04T05:42:43;99955.25;;;7.17;78.80
48622;BME280;34421;48.944;9.460;2023-02-04T05:45:10;99964.22;;;7.16;78.63
48622;BME280;34421;48.944;9.460;2023-02-04T05:47:37;99969.13;;;7.11;78.71
48622;BME280;34421;48.944;9.460;2023-02-04T05:50:02;99965.84;;;6.99;78.03
48622;BME280;34421;48.944;9.460;2023-02-04T05:52:28;99960.34;;;6.92;78.23
48622;BME280;34421;48.944;9.460;2023-02-04T05:54:53;99954.50;;;6.89;78.37
48622;BME280;34421;48.944;9.460;2023-02-04T05:57:18;99967.06;;;6.87;78.65
48622;BME280;34421;48.944;9.460;2023-02-04T05:59:43;99971.91;;;6.91;78.23
48622;BME280;34421;48.944;9.460;2023-02-04T06:02:09;99977.34;;;6.90;78.97
48622;BME280;34421;48.944;9.460;2023-02-04T06:04:34;99989.75;;;6.89;78.60
48622;BME280;34421;48.944;9.460;2023-02-04T06:06:59;99996.88;;;6.89;78.10
48622;BME280;34421;48.944;9.460;2023-02-04T06:09:25;100002.41;;;6.95;79.09
48622;BME280;34421;48.944;9.460;2023-02-04T06:11:50;100006.44;;;6.99;79.02
48622;BME280;34421;48.944;9.460;2023-02-04T06:14:16;100013.22;;;7.02;78.19
48622;BME280;34421;48.944;9.460;2023-02-04T06:16:41;100010.75;;;7.00;77.90
48622;BME280;34421;48.944;9.460;2023-02-04T06:19:06;100020.28;;;6.93;78.40
48622;BME280;34421;48.944;9.460;2023-02-04T06:21:31;100018.50;;;6.84;78.33
48622;BME280;34421;48.944;9.460;2023-02-04T06:23:56;100021.72;;;6.78;77.67
48622;BME280;34421;48.944;9.460;2023-02-04T06:26:22;100025.44;;;6.67;78.17
48622;BME280;34421;48.944;9.460;2023-02-04T06:28:47;100025.50;;;6.57;77.73
48622;BME280;34421;48.944;9.460;2023-02-04T06:31:12;100029.97;;;6.47;78.13
48622;BME280;34421;48.944;9.460;2023-02-04T06:33:37;100030.56;;;6.41;79.28
48622;BME280;34421;48.944;9.460;2023-02-04T06:36:03;100048.00;;;6.34;78.69
48622;BME280;34421;48.944;9.460;2023-02-04T06:38:28;100052.19;;;6.27;78.07
48622;BME280;34421;48.944;9.460;2023-02-04T06:40:54;100048.16;;;6.23;77.35
48622;BME280;34421;48.944;9.460;2023-02-04T06:43:19;100051.81;;;6.22;78.29
48622;BME280;34421;48.944;9.460;2023-02-04T06:45:45;100059.03;;;6.20;77.68
48622;BME280;34421;48.944;9.460;2023-02-04T06:48:10;100064.88;;;6.23;77.36
48622;BME280;34421;48.944;9.460;2023-02-04T06:50:36;100061.66;;;6.29;77.37
48622;BME280;34421;48.944;9.460;2023-02-04T06:53:01;100067.75;;;6.39;77.50
48622;BME280;34421;48.944;9.460;2023-02-04T06:55:26;100069.78;;;6.55;76.66
48622;BME280;34421;48.944;9.460;2023-02-04T06:57:51;100066.66;;;6.70;76.16
48622;BME280;34421;48.944;9.460;2023-02-04T07:00:17;100063.03;;;6.71;75.65
48622;BME280;34421;48.944;9.460;2023-02-04T07:02:42;100061.44;;;6.78;75.38
48622;BME280;34421;48.944;9.460;2023-02-04T07:05:08;100073.84;;;6.77;75.24
48622;BME280;34421;48.944;9.460;2023-02-04T07:07:33;100076.91;;;6.82;74.92
48622;BME280;34421;48.944;9.460;2023-02-04T07:09:59;100090.63;;;6.96;75.09
48622;BME280;34421;48.944;9.460;2023-02-04T07:12:24;100094.75;;;7.08;74.69
48622;BME280;34421;48.944;9.460;2023-02-04T07:14:49;100104.91;;;7.13;74.51
48622;BME280;34421;48.944;9.460;2023-02-04T07:17:14;100101.25;;;7.14;74.00
48622;BME280;34421;48.944;9.460;2023-02-04T07:19:39;100118.13;;;7.13;73.96
48622;BME280;34421;48.944;9.460;2023-02-04T07:22:05;100119.91;;;7.22;73.82
48622;BME280;34421;48.944;9.460;2023-02-04T07:24:30;100125.28;;;7.30;73.42
48622;BME280;34421;48.944;9.460;2023-02-04T07:26:55;100122.88;;;7.37;73.50
48622;BME280;34421;48.944;9.460;2023-02-04T07:29:21;100131.63;;;7.47;73.13
48622;BME280;34421;48.944;9.460;2023-02-04T07:31:46;100122.22;;;7.52;73.00
48622;BME280;34421;48.944;9.460;2023-02-04T07:34:14;100126.06;;;7.58;73.03
48622;BME280;34421;48.944;9.460;2023-02-04T07:36:40;100130.94;;;7.63;72.42
48622;BME280;34421;48.944;9.460;2023-02-04T07:39:05;100148.91;;;7.69;72.85
48622;BME280;34421;48.944;9.460;2023-02-04T07:41:30;100138.38;;;7.77;72.10
48622;BME280;34421;48.944;9.460;2023-02-04T07:43:56;100146.69;;;7.82;71.86
48622;BME280;34421;48.944;9.460;2023-02-04T07:46:21;100131.25;;;7.78;72.10
48622;BME280;34421;48.944;9.460;2023-02-04T07:48:46;100141.56;;;7.81;71.70
48622;BME280;34421;48.944;9.460;2023-02-04T07:51:11;100141.94;;;7.86;71.58
48622;BME280;34421;48.944;9.460;2023-02-04T07:53:37;100146.47;;;7.93;71.11
48622;BME280;34421;48.944;9.460;2023-02-04T07:56:02;100145.50;;;7.94;71.40
48622;BME280;34421;48.944;9.460;2023-02-04T07:58:27;100150.50;;;7.97;70.63
48622;BME280;34421;48.944;9.460;2023-02-04T08:00:52;100158.16;;;8.01;71.12
48622;BME280;34421;48.944;9.460;2023-02-04T08:03:17;100158.16;;;8.01;70.80
48622;BME280;34421;48.944;9.460;2023-02-04T08:05:43;100162.47;;;8.02;71.56
48622;BME280;34421;48.944;9.460;2023-02-04T08:08:08;100171.75;;;8.06;70.83
48622;BME280;34421;48.944;9.460;2023-02-04T08:10:33;100175.31;;;8.14;70.96
48622;BME280;34421;48.944;9.460;2023-02-04T08:12:58;100174.25;;;8.25;70.46
48622;BME280;34421;48.944;9.460;2023-02-04T08:15:23;100179.66;;;8.33;70.45
48622;BME280;34421;48.944;9.460;2023-02-04T08:17:49;100182.69;;;8.38;70.47
48622;BME280;34421;48.944;9.460;2023-02-04T08:20:14;100185.56;;;8.45;70.75
48622;BME280;34421;48.944;9.460;2023-02-04T08:22:40;100194.06;;;8.49;70.05
48622;BME280;34421;48.944;9.460;2023-02-04T08:25:05;100200.06;;;8.51;69.77
48622;BME280;34421;48.944;9.460;2023-02-04T08:27:31;100195.09;;;8.56;69.02
48622;BME280;34421;48.944;9.460;2023-02-04T08:29:56;100204.25;;;8.61;68.01
48622;BME280;34421;48.944;9.460;2023-02-04T08:32:21;100204.13;;;8.63;68.72
48622;BME280;34421;48.944;9.460;2023-02-04T08:34:47;100203.13;;;8.64;68.63
48622;BME280;34421;48.944;9.460;2023-02-04T08:37:13;100218.75;;;8.67;68.50
48622;BME280;34421;48.944;9.460;2023-02-04T08:39:38;100213.31;;;8.77;68.43
48622;BME280;34421;48.944;9.460;2023-02-04T08:42:04;100215.91;;;8.86;68.74
48622;BME280;34421;48.944;9.460;2023-02-04T08:44:29;100217.75;;;8.94;69.82
48622;BME280;34421;48.944;9.460;2023-02-04T08:46:54;100211.34;;;9.05;68.92
48622;BME280;34421;48.944;9.460;2023-02-04T08:49:19;100214.66;;;9.07;69.06
48622;BME280;34421;48.944;9.460;2023-02-04T08:51:45;100221.34;;;9.11;68.89
48622;BME280;34421;48.944;9.460;2023-02-04T08:54:10;100219.66;;;9.10;68.89
48622;BME280;34421;48.944;9.460;2023-02-04T08:56:35;100216.69;;;9.13;68.91
48622;BME280;34421;48.944;9.460;2023-02-04T08:59:00;100231.84;;;9.21;68.50
48622;BME280;34421;48.944;9.460;2023-02-04T09:01:26;100229.44;;;9.35;68.06
48622;BME280;34421;48.944;9.460;2023-02-04T09:03:51;100236.47;;;9.53;68.62
48622;BME280;34421;48.944;9.460;2023-02-04T09:06:16;100235.00;;;9.58;67.96
48622;BME280;34421;48.944;9.460;2023-02-04T09:08:42;100232.88;;;9.62;66.86
48622;BME280;34421;48.944;9.460;2023-02-04T09:11:07;100238.22;;;9.70;67.54
48622;BME280;34421;48.944;9.460;2023-02-04T09:13:34;100238.53;;;9.67;66.20
48622;BME280;34421;48.944;9.460;2023-02-04T09:15:59;100243.84;;;9.67;66.63
48622;BME280;34421;48.944;9.460;2023-02-04T09:18:25;100244.69;;;9.68;66.77
48622;BME280;34421;48.944;9.460;2023-02-04T09:20:50;100245.84;;;9.65;66.74
48622;BME280;34421;48.944;9.460;2023-02-04T09:23:16;100252.47;;;9.61;66.96
48622;BME280;34421;48.944;9.460;2023-02-04T09:25:42;100265.97;;;9.68;67.03
48622;BME280;34421;48.944;9.460;2023-02-04T09:28:08;100260.81;;;9.74;66.19
48622;BME280;34421;48.944;9.460;2023-02-04T09:30:35;100264.00;;;9.78;66.70
48622;BME280;34421;48.944;9.460;2023-02-04T09:33:00;100270.13;;;9.78;67.38
48622;BME280;34421;48.944;9.460;2023-02-04T09:35:26;100268.00;;;9.90;67.23
48622;BME280;34421;48.944;9.460;2023-02-04T09:37:51;100270.75;;;10.15;66.21
48622;BME280;34421;48.944;9.460;2023-02-04T09:40:16;100271.50;;;10.41;65.25
48622;BME280;34421;48.944;9.460;2023-02-04T09:42:42;100258.66;;;10.86;65.84
48622;BME280;34421;48.944;9.460;2023-02-04T09:45:18;100268.53;;;11.33;64.47
48622;BME280;34421;48.944;9.460;2023-02-04T09:47:45;100267.50;;;11.90;63.15
48622;BME280;34421;48.944;9.460;2023-02-04T09:50:12;100278.81;;;12.00;62.38
48622;BME280;34421;48.944;9.460;2023-02-04T09:52:38;100286.47;;;12.03;60.66
48622;BME280;34421;48.944;9.460;2023-02-04T09:55:07;100285.16;;;11.99;60.45
48622;BME280;34421;48.944;9.460;2023-02-04T09:57:33;100278.03;;;11.91;60.31
48622;BME280;34421;48.944;9.460;2023-02-04T09:59:58;100278.84;;;11.83;59.92
48622;BME280;34421;48.944;9.460;2023-02-04T10:02:23;100282.56;;;11.74;60.61
48622;BME280;34421;48.944;9.460;2023-02-04T10:04:54;100287.78;;;11.59;59.48
48622;BME280;34421;48.944;9.460;2023-02-04T10:07:21;100288.84;;;11.50;60.02
48622;BME280;34421;48.944;9.460;2023-02-04T10:09:53;100293.88;;;11.37;58.71
48622;BME280;34421;48.944;9.460;2023-02-04T10:12:19;100297.88;;;11.41;58.79
48622;BME280;34421;48.944;9.460;2023-02-04T10:14:44;100289.19;;;11.47;58.49
48622;BME280;34421;48.944;9.460;2023-02-04T10:17:17;100284.16;;;11.52;57.67
48622;BME280;34421;48.944;9.460;2023-02-04T10:19:44;100283.00;;;11.55;57.06
48622;BME280;34421;48.944;9.460;2023-02-04T10:22:15;100290.84;;;11.48;56.30
48622;BME280;34421;48.944;9.460;2023-02-04T10:24:40;100293.53;;;11.48;56.93
48622;BME280;34421;48.944;9.460;2023-02-04T10:27:07;100295.19;;;11.49;57.36
48622;BME280;34421;48.944;9.460;2023-02-04T10:29:32;100286.38;;;11.40;56.71
48622;BME280;34421;48.944;9.460;2023-02-04T10:31:58;100286.88;;;11.36;57.86
48622;BME280;34421;48.944;9.460;2023-02-04T10:34:31;100282.88;;;11.40;57.84
48622;BME280;34421;48.944;9.460;2023-02-04T10:36:57;100279.53;;;11.46;57.26
48622;BME280;34421;48.944;9.460;2023-02-04T10:39:23;100294.84;;;11.52;57.28
48622;BME280;34421;48.944;9.460;2023-02-04T10:41:49;100281.63;;;11.59;56.82
48622;BME280;34421;48.944;9.460;2023-02-04T10:44:16;100281.78;;;11.66;56.51
48622;BME280;34421;48.944;9.460;2023-02-04T10:46:42;100279.78;;;11.68;56.58
48622;BME280;34421;48.944;9.460;2023-02-04T10:49:17;100284.16;;;11.52;57.19
48622;BME280;34421;48.944;9.460;2023-02-04T10:51:43;100282.09;;;11.71;56.97
48622;BME280;34421;48.944;9.460;2023-02-04T10:54:12;100285.00;;;11.92;55.93
48622;BME280;34421;48.944;9.460;2023-02-04T10:56:59;100283.22;;;12.16;55.07
48622;BME280;34421;48.944;9.460;2023-02-04T10:59:27;100283.41;;;12.37;54.51
48622;BME280;34421;48.944;9.460;2023-02-04T11:01:56;100289.72;;;12.44;54.25
48622;BME280;34421;48.944;9.460;2023-02-04T11:04:22;100284.03;;;12.47;54.50
48622;BME280;34421;48.944;9.460;2023-02-04T11:06:47;100286.75;;;12.62;54.37
48622;BME280;34421;48.944;9.460;2023-02-04T11:09:13;100291.16;;;12.93;53.50
48622;BME280;34421;48.944;9.460;2023-02-04T11:11:38;100289.09;;;13.18;52.77
48622;BME280;34421;48.944;9.460;2023-02-04T11:14:22;100288.47;;;13.45;51.11
48622;BME280;34421;48.944;9.460;2023-02-04T11:16:48;100288.19;;;13.70;50.03
48622;BME280;34421;48.944;9.460;2023-02-04T11:19:13;100286.91;;;14.17;49.57
48622;BME280;34421;48.944;9.460;2023-02-04T11:26:31;100290.00;;;15.35;46.44
48622;BME280;34421;48.944;9.460;2023-02-04T11:33:48;100274.78;;;16.64;41.99
48622;BME280;34421;48.944;9.460;2023-02-04T11:36:13;100273.16;;;16.90;41.41
48622;BME280;34421;48.944;9.460;2023-02-04T11:38:42;100275.63;;;17.12;39.79
48622;BME280;34421;48.944;9.460;2023-02-04T11:41:13;100270.47;;;16.77;40.79
48622;BME280;34421;48.944;9.460;2023-02-04T11:43:40;100275.56;;;16.32;41.15
48622;BME280;34421;48.944;9.460;2023-02-04T11:46:12;100270.88;;;15.86;41.83
48622;BME280;34421;48.944;9.460;2023-02-04T11:48:40;100281.31;;;15.67;42.72
48622;BME280;34421;48.944;9.460;2023-02-04T11:51:10;100275.69;;;15.56;42.43
48622;BME280;34421;48.944;9.460;2023-02-04T11:53:36;100279.75;;;15.80;41.83
48622;BME280;34421;48.944;9.460;2023-02-04T11:56:01;100271.16;;;16.04;41.54
48622;BME280;34421;48.944;9.460;2023-02-04T11:58:27;100275.25;;;16.00;40.76
48622;BME280;34421;48.944;9.460;2023-02-04T12:00:53;100270.88;;;15.86;40.92
48622;BME280;34421;48.944;9.460;2023-02-04T12:05:44;100265.59;;;16.12;39.72
48622;BME280;34421;48.944;9.460;2023-02-04T12:13:18;100290.00;;;15.35;39.83
48622;BME280;34421;48.944;9.460;2023-02-04T12:15:51;100288.72;;;15.31;40.39
48622;BME280;34421;48.944;9.460;2023-02-04T12:18:16;100292.47;;;15.30;39.39
48622;BME280;34421;48.944;9.460;2023-02-04T12:20:41;100279.44;;;15.26;38.75
48622;BME280;34421;48.944;9.460;2023-02-04T12:23:07;100287.50;;;15.33;39.77
48622;BME280;34421;48.944;9.460;2023-02-04T12:25:32;100285.50;;;15.42;40.40
48622;BME280;34421;48.944;9.460;2023-02-04T12:27:58;100284.31;;;15.51;40.03
48622;BME280;34421;48.944;9.460;2023-02-04T12:30:24;100285.16;;;15.58;39.86
48622;BME280;34421;48.944;9.460;2023-02-04T12:32:50;100289.09;;;15.56;39.87
48622;BME280;34421;48.944;9.460;2023-02-04T12:35:15;100286.75;;;15.46;40.91
48622;BME280;34421;48.944;9.460;2023-02-04T12:37:40;100285.19;;;15.23;41.30
48622;BME280;34421;48.944;9.460;2023-02-04T12:40:06;100284.31;;;15.16;40.54
48622;BME280;34421;48.944;9.460;2023-02-04T12:42:32;100280.13;;;15.07;40.56
48622;BME280;34421;48.944;9.460;2023-02-04T12:44:57;100281.69;;;14.95;41.61
48622;BME280;34421;48.944;9.460;2023-02-04T12:47:22;100292.22;;;14.75;42.12
48622;BME280;34421;48.944;9.460;2023-02-04T12:49:47;100288.81;;;14.45;42.62
48622;BME280;34421;48.944;9.460;2023-02-04T12:52:13;100294.13;;;14.17;42.90
48622;BME280;34421;48.944;9.460;2023-02-04T12:54:38;100295.41;;;14.06;43.11
48622;BME280;34421;48.944;9.460;2023-02-04T12:57:03;100293.34;;;13.86;42.96
48622;BME280;34421;48.944;9.460;2023-02-04T12:59:28;100290.03;;;13.70;43.43
48622;BME280;34421;48.944;9.460;2023-02-04T13:01:55;100283.50;;;13.42;43.79
48622;BME280;34421;48.944;9.460;2023-02-04T13:04:20;100289.34;;;13.23;43.98
48622;BME280;34421;48.944;9.460;2023-02-04T13:06:46;100283.34;;;13.06;44.10
48622;BME280;34421;48.944;9.460;2023-02-04T13:09:11;100283.78;;;12.95;44.65
48622;BME280;34421;48.944;9.460;2023-02-04T13:11:36;100290.38;;;12.84;44.72
48622;BME280;34421;48.944;9.460;2023-02-04T13:14:02;100289.47;;;12.77;45.40
48622;BME280;34421;48.944;9.460;2023-02-04T13:16:27;100289.00;;;12.73;46.30